createdAt,value
2023-03-19T00:00:34.265Z,9.55
2023-03-19T00:03:01.489Z,9.64
2023-03-19T00:05:28.029Z,9.68
2023-03-19T00:07:54.733Z,9.64
2023-03-19T00:10:21.386Z,9.67
2023-03-19T00:12:47.963Z,9.75
2023-03-19T00:15:15.304Z,9.77
2023-03-19T00:17:43.437Z,9.82
2023-03-19T00:20:12.268Z,9.81
2023-03-19T00:22:39.895Z,9.94
2023-03-19T00:25:08.150Z,9.99
2023-03-19T00:27:34.564Z,9.89
2023-03-19T00:30:02.529Z,9.86
2023-03-19T00:32:29.995Z,9.77
2023-03-19T00:34:56.509Z,9.69
2023-03-19T00:37:23.910Z,9.62
2023-03-19T00:39:50.344Z,9.55
2023-03-19T00:42:16.762Z,9.51
2023-03-19T00:44:43.185Z,9.46
2023-03-19T00:47:09.625Z,9.42
2023-03-19T00:49:36.791Z,9.42
2023-03-19T00:52:03.417Z,9.35
2023-03-19T00:54:32.162Z,9.38
2023-03-19T00:56:58.902Z,9.32
2023-03-19T00:59:25.426Z,9.34
2023-03-19T01:01:52.467Z,9.34
2023-03-19T01:04:19.118Z,9.39
2023-03-19T01:06:46.178Z,9.34
2023-03-19T01:09:12.642Z,9.42
2023-03-19T01:11:39.389Z,9.46
2023-03-19T01:14:06.316Z,9.57
2023-03-19T01:16:34.616Z,9.81
2023-03-19T01:19:01.874Z,9.90
2023-03-19T01:21:31.234Z,10.01
2023-03-19T01:23:58.334Z,10.06
2023-03-19T01:26:24.728Z,10.02
2023-03-19T01:28:51.119Z,10.03
2023-03-19T01:31:17.684Z,10.04
2023-03-19T01:33:44.073Z,9.97
2023-03-19T01:36:11.115Z,9.97
2023-03-19T01:38:38.002Z,9.90
2023-03-19T01:41:04.701Z,9.84
2023-03-19T01:43:32.616Z,9.90
2023-03-19T01:46:18.915Z,9.98
2023-03-19T01:49:01.011Z,10.02
2023-03-19T01:51:35.291Z,9.99
2023-03-19T01:54:05.652Z,10.01
2023-03-19T01:56:34.029Z,9.90
2023-03-19T01:59:16.692Z,9.91
2023-03-19T02:04:18.969Z,9.88
2023-03-19T02:06:45.573Z,9.86
2023-03-19T02:09:14.076Z,9.83
2023-03-19T02:11:41.015Z,9.71
2023-03-19T02:14:09.469Z,9.68
2023-03-19T02:16:35.862Z,9.65
2023-03-19T02:19:02.273Z,9.68
2023-03-19T02:21:29.380Z,9.61
2023-03-19T02:24:17.394Z,9.62
2023-03-19T02:26:45.753Z,9.56
2023-03-19T02:29:12.602Z,9.49
2023-03-19T02:31:39.413Z,9.44
2023-03-19T02:34:23.955Z,9.42
2023-03-19T02:36:54.695Z,9.34
2023-03-19T02:39:29.280Z,9.26
2023-03-19T02:41:57.089Z,9.17
2023-03-19T02:44:23.737Z,9.15
2023-03-19T02:46:50.688Z,9.05
2023-03-19T02:49:17.861Z,8.96
2023-03-19T02:51:44.461Z,8.86
2023-03-19T02:54:11.043Z,8.81
2023-03-19T02:56:37.432Z,8.74
2023-03-19T02:59:04.392Z,8.71
2023-03-19T03:01:30.887Z,8.67
2023-03-19T03:03:57.294Z,8.54
2023-03-19T03:06:24.619Z,8.56
2023-03-19T03:08:52.043Z,8.58
2023-03-19T03:11:18.508Z,8.52
2023-03-19T03:13:44.902Z,8.46
2023-03-19T03:16:11.906Z,8.40
2023-03-19T03:18:38.260Z,8.40
2023-03-19T03:21:04.810Z,8.51
2023-03-19T03:23:31.178Z,8.55
2023-03-19T03:25:57.601Z,8.55
2023-03-19T03:28:24.953Z,8.68
2023-03-19T03:30:51.674Z,8.74
2023-03-19T03:33:18.463Z,8.86
2023-03-19T03:35:44.875Z,8.92
2023-03-19T03:38:11.501Z,9.09
2023-03-19T03:40:38.033Z,9.11
2023-03-19T03:43:04.543Z,9.09
2023-03-19T03:45:31.790Z,9.14
2023-03-19T03:47:58.415Z,9.18
2023-03-19T03:50:24.753Z,9.28
2023-03-19T03:52:51.549Z,9.30
2023-03-19T03:55:17.942Z,9.28
2023-03-19T03:57:44.410Z,9.27
2023-03-19T04:00:12.441Z,9.32
2023-03-19T04:02:39.331Z,9.27
2023-03-19T04:05:06.575Z,9.30
2023-03-19T04:07:32.981Z,9.29
2023-03-19T04:09:59.481Z,9.31
2023-03-19T04:12:26.235Z,9.29
2023-03-19T04:14:52.613Z,9.25
2023-03-19T04:17:18.999Z,9.22
2023-03-19T04:19:45.360Z,9.18
2023-03-19T04:22:11.762Z,9.09
2023-03-19T04:24:38.186Z,9.07
2023-03-19T04:27:04.539Z,9.06
2023-03-19T04:29:31.002Z,9.05
2023-03-19T04:31:57.376Z,9.07
2023-03-19T04:34:23.763Z,9.14
2023-03-19T04:36:51.965Z,9.19
2023-03-19T04:39:18.448Z,9.33
2023-03-19T04:41:45.166Z,9.19
2023-03-19T04:44:11.597Z,9.13
2023-03-19T04:46:38.219Z,9.17
2023-03-19T04:49:04.668Z,9.35
2023-03-19T04:51:31.091Z,9.14
2023-03-19T04:53:57.441Z,9.21
2023-03-19T04:56:23.868Z,9.12
2023-03-19T04:58:50.750Z,9.14
2023-03-19T05:01:17.160Z,9.08
2023-03-19T05:03:43.766Z,9.12
2023-03-19T05:06:10.299Z,9.14
2023-03-19T05:08:37.117Z,9.12
2023-03-19T05:11:03.636Z,9.23
2023-03-19T05:13:30.165Z,9.25
2023-03-19T05:15:56.697Z,9.30
2023-03-19T05:18:23.241Z,9.24
2023-03-19T05:20:49.636Z,9.28
2023-03-19T05:23:16.012Z,9.28
2023-03-19T05:25:42.649Z,9.31
2023-03-19T05:28:09.095Z,9.33
2023-03-19T05:30:36.310Z,9.29
2023-03-19T05:33:02.876Z,9.36
2023-03-19T05:35:30.437Z,9.30
2023-03-19T05:37:57.074Z,9.23
2023-03-19T05:40:23.812Z,9.19
2023-03-19T05:42:50.684Z,9.16
2023-03-19T05:45:17.723Z,9.08
2023-03-19T05:47:44.862Z,9.06
2023-03-19T05:50:12.247Z,9.01
2023-03-19T05:52:38.709Z,9.09
2023-03-19T05:55:05.671Z,9.07
2023-03-19T05:57:32.188Z,9.08
2023-03-19T05:59:58.593Z,9.25
2023-03-19T06:02:25.103Z,9.28
2023-03-19T06:04:51.513Z,9.30
2023-03-19T06:07:18.146Z,9.35
2023-03-19T06:09:44.577Z,9.42
2023-03-19T06:12:11.129Z,9.44
2023-03-19T06:14:37.502Z,9.45
2023-03-19T06:17:03.844Z,9.46
2023-03-19T06:19:30.225Z,9.60
2023-03-19T06:21:56.798Z,9.55
2023-03-19T06:24:23.277Z,9.60
2023-03-19T06:26:49.724Z,9.58
2023-03-19T06:29:16.249Z,9.67
2023-03-19T06:31:42.981Z,9.67
2023-03-19T06:34:09.849Z,9.69
2023-03-19T06:36:37.147Z,9.67
2023-03-19T06:39:03.601Z,9.76
2023-03-19T06:41:30.058Z,9.85
2023-03-19T06:43:56.790Z,9.88
2023-03-19T06:46:23.328Z,9.88
2023-03-19T06:48:49.921Z,9.92
2023-03-19T06:51:16.306Z,9.97
2023-03-19T06:53:42.998Z,10.05
2023-03-19T06:56:09.367Z,10.03
2023-03-19T06:58:36.241Z,10.06
2023-03-19T07:01:03.060Z,10.09
2023-03-19T07:03:29.538Z,10.13
2023-03-19T07:05:56.255Z,10.14
2023-03-19T07:08:22.721Z,10.14
2023-03-19T07:10:49.070Z,10.17
2023-03-19T07:13:15.452Z,10.23
2023-03-19T07:15:41.823Z,10.26
2023-03-19T07:18:08.206Z,10.29
2023-03-19T07:20:34.826Z,10.27
2023-03-19T07:23:01.292Z,10.29
2023-03-19T07:25:27.641Z,10.38
2023-03-19T07:27:56.012Z,10.38
2023-03-19T07:30:22.674Z,10.47
2023-03-19T07:32:49.108Z,10.55
2023-03-19T07:35:15.849Z,10.59
2023-03-19T07:37:42.702Z,10.70
2023-03-19T07:40:10.285Z,10.77
2023-03-19T07:42:36.660Z,11.00
2023-03-19T07:45:04.051Z,11.04
2023-03-19T07:47:30.872Z,11.06
2023-03-19T07:49:58.309Z,11.16
2023-03-19T07:52:26.015Z,11.26
2023-03-19T07:54:52.630Z,11.29
2023-03-19T07:57:19.488Z,11.32
2023-03-19T07:59:46.356Z,11.41
2023-03-19T08:02:13.249Z,11.42
2023-03-19T08:04:41.190Z,11.39
2023-03-19T08:07:10.662Z,11.35
2023-03-19T08:09:37.481Z,11.36
2023-03-19T08:12:04.263Z,11.30
2023-03-19T08:14:30.808Z,11.23
2023-03-19T08:16:57.203Z,11.30
2023-03-19T08:19:23.597Z,11.32
2023-03-19T08:21:50.155Z,11.29
2023-03-19T08:24:17.565Z,11.36
2023-03-19T08:26:44.171Z,11.30
2023-03-19T08:29:10.877Z,11.35
2023-03-19T08:31:37.707Z,11.28
2023-03-19T08:34:04.696Z,11.30
2023-03-19T08:36:31.734Z,11.29
2023-03-19T08:38:59.127Z,11.29
2023-03-19T08:41:25.634Z,11.31
2023-03-19T08:43:52.028Z,11.26
2023-03-19T08:46:18.641Z,11.41
2023-03-19T08:48:45.410Z,11.41
2023-03-19T08:51:11.987Z,11.24
2023-03-19T08:53:38.881Z,11.21
2023-03-19T08:56:10.137Z,11.20
2023-03-19T08:58:36.587Z,11.19
2023-03-19T09:01:05.678Z,11.24
2023-03-19T09:03:32.175Z,11.20
2023-03-19T09:06:03.424Z,11.18
2023-03-19T09:08:31.069Z,11.13
2023-03-19T09:10:57.997Z,11.12
2023-03-19T09:13:25.492Z,11.07
2023-03-19T09:15:52.886Z,11.06
2023-03-19T09:18:24.739Z,11.05
2023-03-19T09:20:52.854Z,11.08
2023-03-19T09:23:20.082Z,11.00
2023-03-19T09:25:47.056Z,11.00
2023-03-19T09:28:13.404Z,10.92
2023-03-19T09:30:39.820Z,10.84
2023-03-19T09:33:06.821Z,10.86
2023-03-19T09:35:33.645Z,10.78
2023-03-19T09:38:02.249Z,10.74
2023-03-19T09:40:42.693Z,10.66
2023-03-19T09:43:24.011Z,10.67
2023-03-19T09:45:50.798Z,10.55
2023-03-19T09:48:25.177Z,10.52
2023-03-19T09:50:52.672Z,10.48
2023-03-19T09:53:40.277Z,10.67
2023-03-19T09:56:12.761Z,10.91
2023-03-19T09:58:39.256Z,11.04
2023-03-19T10:01:06.496Z,11.12
2023-03-19T10:04:11.698Z,11.19
2023-03-19T10:06:40.201Z,11.34
2023-03-19T10:09:41.156Z,11.44
2023-03-19T10:12:17.358Z,11.55
2023-03-19T10:15:15.171Z,11.64
2023-03-19T10:18:11.828Z,11.63
2023-03-19T10:21:04.987Z,11.75
2023-03-19T10:23:50.527Z,11.84
2023-03-19T10:26:18.930Z,11.84
2023-03-19T10:28:57.959Z,12.01
2023-03-19T10:31:31.310Z,12.08
2023-03-19T10:34:08.465Z,12.24
2023-03-19T10:36:37.609Z,12.24
2023-03-19T10:39:07.636Z,12.28
2023-03-19T10:41:40.363Z,12.28
2023-03-19T10:44:15.654Z,12.23
2023-03-19T10:46:42.087Z,12.21
2023-03-19T10:49:13.162Z,12.29
2023-03-19T10:51:42.493Z,12.26
2023-03-19T10:54:27.451Z,12.33
2023-03-19T10:56:59.909Z,12.40
2023-03-19T10:59:36.943Z,12.47
2023-03-19T11:02:22.520Z,12.57
2023-03-19T11:04:49.522Z,12.68
2023-03-19T11:07:27.288Z,12.87
2023-03-19T11:09:55.859Z,13.06
2023-03-19T11:12:33.864Z,13.08
2023-03-19T11:15:07.324Z,13.18
2023-03-19T11:17:49.569Z,13.26
2023-03-19T11:20:22.422Z,13.42
2023-03-19T11:22:52.783Z,13.44
2023-03-19T11:25:29.701Z,13.35
2023-03-19T11:28:04.251Z,13.31
2023-03-19T11:31:04.205Z,13.27
2023-03-19T11:33:59.073Z,13.20
2023-03-19T11:36:46.585Z,13.17
2023-03-19T11:39:39.980Z,13.28
2023-03-19T11:42:06.522Z,13.29
2023-03-19T11:45:27.418Z,13.22
2023-03-19T11:48:05.958Z,13.34
2023-03-19T11:51:05.884Z,13.31
2023-03-19T11:54:07.950Z,13.40
2023-03-19T11:57:04.135Z,13.44
2023-03-19T11:59:46.726Z,13.56
2023-03-19T12:02:34.948Z,13.59
2023-03-19T12:05:14.298Z,13.61
2023-03-19T12:07:41.266Z,13.72
2023-03-19T12:10:26.204Z,13.79
2023-03-19T12:13:16.739Z,13.93
2023-03-19T12:15:58.572Z,14.15
2023-03-19T12:18:44.477Z,14.24
2023-03-19T12:21:25.914Z,14.19
2023-03-19T12:23:58.716Z,14.23
2023-03-19T12:26:47.838Z,14.20
2023-03-19T12:29:24.350Z,14.15
2023-03-19T12:32:19.409Z,14.20
2023-03-19T12:34:51.078Z,14.39
2023-03-19T12:37:17.689Z,14.79
2023-03-19T12:40:05.136Z,15.20
2023-03-19T12:42:38.756Z,15.22
2023-03-19T12:45:28.307Z,15.08
2023-03-19T12:48:19.254Z,15.09
2023-03-19T12:50:51.496Z,14.79
2023-03-19T12:53:41.170Z,14.45
2023-03-19T12:56:17.602Z,14.32
2023-03-19T12:59:15.364Z,14.16
2023-03-19T13:01:48.989Z,13.93
2023-03-19T13:04:23.693Z,13.69
2023-03-19T13:07:02.025Z,13.58
2023-03-19T13:09:37.200Z,13.44
2023-03-19T13:12:04.988Z,13.44
2023-03-19T13:14:42.718Z,13.29
2023-03-19T13:17:41.417Z,13.04
2023-03-19T13:20:29.473Z,12.94
2023-03-19T13:23:02.426Z,12.98
2023-03-19T13:25:42.263Z,12.99
2023-03-19T13:28:19.096Z,12.94
2023-03-19T13:31:17.866Z,12.98
2023-03-19T13:34:05.449Z,13.09
2023-03-19T13:36:39.256Z,13.08
2023-03-19T13:39:15.254Z,13.21
2023-03-19T13:41:42.604Z,13.24
2023-03-19T13:44:31.097Z,13.39
2023-03-19T13:47:01.895Z,13.47
2023-03-19T13:49:35.683Z,13.49
2023-03-19T13:52:22.583Z,13.47
2023-03-19T13:54:53.446Z,13.48
2023-03-19T13:57:22.626Z,13.42
2023-03-19T13:59:50.625Z,13.37
2023-03-19T14:02:24.511Z,13.47
2023-03-19T14:05:04.477Z,13.37
2023-03-19T14:07:37.086Z,13.43
2023-03-19T14:10:25.259Z,13.39
2023-03-19T14:13:01.192Z,13.44
2023-03-19T14:15:28.859Z,13.48
2023-03-19T14:18:01.598Z,13.56
2023-03-19T14:20:39.211Z,13.59
2023-03-19T14:23:09.694Z,13.58
2023-03-19T14:26:10.314Z,13.61
2023-03-19T14:28:49.555Z,13.53
2023-03-19T14:31:24.624Z,13.55
2023-03-19T14:33:58.236Z,13.68
2023-03-19T14:36:26.961Z,13.85
2023-03-19T14:39:09.433Z,14.23
2023-03-19T14:41:42.091Z,14.56
2023-03-19T14:44:31.112Z,14.53
2023-03-19T14:47:16.879Z,14.79
2023-03-19T14:49:54.937Z,14.65
2023-03-19T14:52:32.883Z,14.25
2023-03-19T14:55:01.836Z,13.95
2023-03-19T14:57:30.750Z,13.67
2023-03-19T14:59:57.368Z,13.55
2023-03-19T15:02:47.302Z,13.40
2023-03-19T15:05:50.462Z,13.39
2023-03-19T15:08:22.268Z,13.48
2023-03-19T15:11:15.055Z,13.58
2023-03-19T15:14:09.955Z,13.55
2023-03-19T15:16:54.196Z,13.64
2023-03-19T15:19:26.838Z,13.81
2023-03-19T15:22:23.947Z,14.26
2023-03-19T15:24:50.916Z,14.54
2023-03-19T15:27:27.161Z,14.56
2023-03-19T15:29:54.155Z,14.55
2023-03-19T15:33:03.068Z,14.62
2023-03-19T15:35:23.306Z,14.71
2023-03-19T15:37:54.332Z,14.50
2023-03-19T15:40:23.536Z,14.33
2023-03-19T15:42:52.176Z,14.23
2023-03-19T15:45:21.684Z,14.07
2023-03-19T15:48:14.450Z,14.00
2023-03-19T15:50:46.198Z,13.95
2023-03-19T15:53:18.050Z,14.05
2023-03-19T15:55:44.718Z,14.42
2023-03-19T15:58:24.639Z,14.65
2023-03-19T16:00:55.844Z,14.86
2023-03-19T16:03:54.110Z,14.84
2023-03-19T16:06:27.526Z,14.73
2023-03-19T16:08:55.940Z,14.65
2023-03-19T16:11:38.484Z,14.34
2023-03-19T16:14:14.220Z,14.03
2023-03-19T16:16:42.396Z,13.85
2023-03-19T16:19:37.611Z,13.68
2023-03-19T16:22:17.203Z,13.47
2023-03-19T16:24:45.762Z,13.48
2023-03-19T16:27:17.878Z,13.58
2023-03-19T16:29:55.725Z,13.73
2023-03-19T16:32:24.790Z,13.51
2023-03-19T16:34:54.144Z,13.47
2023-03-19T16:37:48.166Z,13.30
2023-03-19T16:40:17.479Z,13.20
2023-03-19T16:42:49.460Z,13.00
2023-03-19T16:45:18.900Z,12.84
2023-03-19T16:47:47.762Z,12.67
2023-03-19T16:50:15.295Z,12.64
2023-03-19T16:52:43.812Z,12.54
2023-03-19T16:55:18.702Z,12.39
2023-03-19T16:57:47.660Z,12.29
2023-03-19T17:00:15.467Z,12.20
2023-03-19T17:02:42.037Z,12.11
2023-03-19T17:05:15.967Z,12.03
2023-03-19T17:07:42.797Z,11.95
2023-03-19T17:10:17.736Z,11.89
2023-03-19T17:12:47.634Z,11.81
2023-03-19T17:15:42.274Z,11.70
2023-03-19T17:18:36.617Z,11.64
2023-03-19T17:21:03.009Z,11.57
2023-03-19T17:23:30.424Z,11.53
2023-03-19T17:25:57.453Z,11.52
2023-03-19T17:28:24.463Z,11.44
2023-03-19T17:30:51.516Z,11.45
2023-03-19T17:33:29.759Z,11.49
2023-03-19T17:35:58.182Z,11.46
2023-03-19T17:38:33.787Z,11.41
2023-03-19T17:41:00.397Z,11.39
2023-03-19T17:43:27.061Z,11.50
2023-03-19T17:45:55.706Z,11.44
2023-03-19T17:48:25.700Z,11.39
2023-03-19T17:50:57.056Z,11.37
2023-03-19T17:53:23.461Z,11.34
2023-03-19T17:55:49.832Z,11.27
2023-03-19T17:58:22.423Z,11.37
2023-03-19T18:00:50.447Z,11.28
2023-03-19T18:03:20.561Z,11.18
2023-03-19T18:05:47.422Z,11.22
2023-03-19T18:08:16.921Z,11.14
2023-03-19T18:10:43.969Z,11.23
2023-03-19T18:13:10.846Z,11.11
2023-03-19T18:15:38.759Z,11.00
2023-03-19T18:18:07.280Z,11.03
2023-03-19T18:20:37.787Z,10.95
2023-03-19T18:23:05.477Z,10.90
2023-03-19T18:25:35.475Z,10.82
2023-03-19T18:28:02.971Z,10.76
2023-03-19T18:30:33.197Z,10.76
2023-03-19T18:33:03.371Z,10.69
2023-03-19T18:35:33.602Z,10.82
2023-03-19T18:38:00.489Z,10.62
2023-03-19T18:40:29.543Z,10.60
2023-03-19T18:42:56.667Z,10.56
2023-03-19T18:45:26.834Z,10.53
2023-03-19T18:47:54.178Z,10.47
2023-03-19T18:50:28.537Z,10.39
2023-03-19T18:52:57.150Z,10.34
2023-03-19T18:55:28.513Z,10.35
2023-03-19T18:58:00.923Z,10.32
2023-03-19T19:00:34.371Z,10.28
2023-03-19T19:03:03.085Z,10.23
2023-03-19T19:05:31.581Z,10.21
2023-03-19T19:08:01.021Z,10.22
2023-03-19T19:10:33.191Z,10.25
2023-03-19T19:13:01.260Z,10.24
2023-03-19T19:15:33.245Z,10.26
2023-03-19T19:18:00.704Z,10.24
2023-03-19T19:20:29.407Z,10.22
2023-03-19T19:22:56.376Z,10.23
2023-03-19T19:25:26.549Z,10.21
2023-03-19T19:27:58.800Z,10.20
2023-03-19T19:30:25.786Z,10.13
2023-03-19T19:32:52.222Z,10.10
2023-03-19T19:35:23.126Z,10.13
2023-03-19T19:37:50.192Z,10.12
2023-03-19T19:40:20.635Z,10.17
2023-03-19T19:42:52.403Z,10.13
2023-03-19T19:45:38.736Z,10.09
2023-03-19T19:48:13.209Z,10.05
2023-03-19T19:50:39.612Z,10.02
2023-03-19T19:53:06.611Z,9.96
2023-03-19T19:55:33.936Z,9.94
2023-03-19T19:58:01.576Z,9.92
2023-03-19T20:00:31.243Z,9.82
2023-03-19T20:02:59.341Z,9.79
2023-03-19T20:05:30.444Z,9.76
2023-03-19T20:08:00.424Z,9.77
2023-03-19T20:10:29.968Z,9.79
2023-03-19T20:12:59.742Z,9.80
2023-03-19T20:15:33.874Z,9.80
2023-03-19T20:18:02.300Z,9.73
2023-03-19T20:20:32.298Z,9.71
2023-03-19T20:23:00.848Z,9.70
2023-03-19T20:25:30.168Z,9.64
2023-03-19T20:28:00.341Z,9.67
2023-03-19T20:30:38.890Z,9.64
2023-03-19T20:33:06.117Z,9.65
2023-03-19T20:35:35.584Z,9.64
2023-03-19T20:38:04.708Z,9.65
2023-03-19T20:40:34.191Z,9.65
2023-03-19T20:43:01.698Z,9.68
2023-03-19T20:45:35.389Z,9.60
2023-03-19T20:48:02.500Z,9.62
2023-03-19T20:50:31.466Z,9.69
2023-03-19T20:53:01.241Z,9.69
2023-03-19T20:55:33.968Z,9.65
2023-03-19T20:58:03.772Z,9.62
2023-03-19T21:00:33.088Z,9.66
2023-03-19T21:03:02.187Z,9.62
2023-03-19T21:05:37.354Z,9.71
2023-03-19T21:08:05.190Z,9.72
2023-03-19T21:10:42.475Z,9.74
2023-03-19T21:13:13.414Z,9.76
2023-03-19T21:15:40.356Z,9.75
2023-03-19T21:18:07.321Z,9.73
2023-03-19T21:20:35.448Z,9.76
2023-03-19T21:23:14.183Z,9.83
2023-03-19T21:25:42.013Z,9.84
2023-03-19T21:28:32.200Z,9.82
2023-03-19T21:30:58.879Z,9.76
2023-03-19T21:33:32.766Z,9.84
2023-03-19T21:36:01.085Z,9.78
2023-03-19T21:38:27.757Z,9.76
2023-03-19T21:40:59.585Z,9.85
2023-03-19T21:43:41.155Z,9.89
2023-03-19T21:46:23.782Z,9.88
2023-03-19T21:48:50.887Z,9.85
2023-03-19T21:51:17.797Z,9.83
2023-03-19T21:53:45.511Z,9.87
2023-03-19T21:56:21.701Z,9.90
2023-03-19T21:58:49.380Z,10.01
2023-03-19T22:01:18.516Z,10.04
2023-03-19T22:03:45.305Z,10.14
2023-03-19T22:06:12.371Z,10.01
2023-03-19T22:08:39.190Z,9.92
2023-03-19T22:11:16.207Z,9.94
2023-03-19T22:13:43.540Z,9.94
2023-03-19T22:16:22.959Z,9.99
2023-03-19T22:18:50.255Z,9.95
2023-03-19T22:21:19.815Z,10.02
2023-03-19T22:23:47.481Z,9.89
2023-03-19T22:26:36.222Z,9.84
2023-03-19T22:29:25.277Z,9.90
2023-03-19T22:31:53.584Z,9.85
2023-03-19T22:34:22.867Z,9.89
2023-03-19T22:36:50.405Z,9.86
2023-03-19T22:39:17.456Z,9.90
2023-03-19T22:41:46.280Z,9.89
2023-03-19T22:44:30.444Z,9.90
2023-03-19T22:46:59.954Z,9.85
2023-03-19T22:49:28.411Z,9.91
2023-03-19T22:51:55.660Z,9.84
2023-03-19T22:54:23.312Z,9.82
2023-03-19T22:56:50.030Z,9.80
2023-03-19T22:59:16.702Z,9.73
2023-03-19T23:01:46.608Z,9.71
2023-03-19T23:04:22.309Z,9.71
2023-03-19T23:06:50.396Z,9.77
2023-03-19T23:09:21.129Z,9.73
2023-03-19T23:11:51.187Z,9.81
2023-03-19T23:14:28.441Z,9.76
2023-03-19T23:19:26.398Z,9.65
2023-03-19T23:21:53.547Z,9.56
2023-03-19T23:24:20.353Z,9.62
2023-03-19T23:26:52.602Z,9.57
2023-03-19T23:29:24.372Z,9.56
2023-03-19T23:31:51.982Z,9.58
2023-03-19T23:34:18.899Z,9.56
2023-03-19T23:36:45.712Z,9.54
2023-03-19T23:39:12.223Z,9.55
2023-03-19T23:41:53.221Z,9.42
2023-03-19T23:44:20.347Z,9.35
2023-03-19T23:46:51.680Z,9.33
2023-03-19T23:49:28.717Z,9.30
2023-03-19T23:51:56.098Z,9.30
2023-03-19T23:54:34.125Z,9.27
2023-03-19T23:57:07.827Z,9.13
2023-03-19T23:59:37.020Z,9.07
